METAR Data
IDs: Format: Raw Decoded Include TAF

Data at: 0202 UTC 01 Mar 2021

KCKV 010152Z AUTO 34005KT 10SM FEW033 SCT048 OVC085 14/14 A2988 RMK AO2 RAE45 SLP115 P0011 T01440144